createdAt,value
2023-03-28T00:01:33.487Z,15.10
2023-03-28T00:04:38.242Z,13.68
2023-03-28T00:07:42.861Z,18.73
2023-03-28T00:10:47.605Z,30.83
2023-03-28T00:13:58.549Z,15.05
2023-03-28T00:17:02.855Z,19.52
2023-03-28T00:20:08.997Z,60.22
2023-03-28T00:23:14.066Z,16.48
2023-03-28T00:26:18.131Z,17.15
2023-03-28T00:29:23.956Z,15.73
2023-03-28T00:32:28.819Z,16.20
2023-03-28T00:35:33.672Z,15.35
2023-03-28T00:38:39.612Z,15.77
2023-03-28T00:41:45.741Z,16.40
2023-03-28T00:44:58.350Z,17.33
2023-03-28T00:48:15.153Z,15.15
2023-03-28T00:51:24.750Z,14.48
2023-03-28T00:54:35.226Z,14.50
2023-03-28T00:57:41.892Z,16.92
2023-03-28T01:00:49.803Z,16.33
2023-03-28T01:04:03.128Z,16.60
2023-03-28T01:07:08.166Z,16.00
2023-03-28T01:10:15.650Z,14.73
2023-03-28T01:13:25.017Z,15.18
2023-03-28T01:16:31.705Z,14.55
2023-03-28T01:19:51.286Z,14.20
2023-03-28T01:23:24.146Z,14.65
2023-03-28T01:26:50.116Z,16.95
2023-03-28T01:30:37.890Z,13.55
2023-03-28T01:34:20.138Z,14.45
2023-03-28T01:37:42.931Z,15.82
2023-03-28T01:40:52.444Z,14.93
2023-03-28T01:48:21.631Z,15.30
2023-03-28T01:51:43.010Z,13.25
2023-03-28T01:55:24.058Z,13.02
2023-03-28T01:58:36.711Z,12.60
2023-03-28T02:02:12.093Z,13.05
2023-03-28T02:05:20.225Z,13.18
2023-03-28T02:08:30.436Z,12.20
2023-03-28T02:12:03.063Z,13.20
2023-03-28T02:15:49.282Z,12.63
2023-03-28T02:19:14.176Z,18.67
2023-03-28T02:23:14.802Z,11.90
2023-03-28T02:26:39.040Z,11.45
2023-03-28T02:30:05.589Z,11.40
2023-03-28T02:33:38.707Z,11.38
2023-03-28T02:36:58.292Z,12.45
2023-03-28T02:40:43.301Z,10.85
2023-03-28T02:44:04.188Z,11.48
2023-03-28T02:47:35.569Z,11.63
2023-03-28T02:50:58.251Z,12.27
2023-03-28T02:54:21.354Z,11.68
2023-03-28T02:57:52.916Z,12.73
2023-03-28T03:00:57.677Z,12.50
2023-03-28T03:04:02.122Z,11.07
2023-03-28T03:07:09.781Z,11.10
2023-03-28T03:10:15.337Z,13.02
2023-03-28T03:13:22.840Z,13.52
2023-03-28T03:16:29.994Z,12.95
2023-03-28T03:19:35.874Z,15.15
2023-03-28T03:22:42.353Z,10.90
2023-03-28T03:25:51.447Z,11.68
2023-03-28T03:29:16.049Z,11.82
2023-03-28T03:32:22.344Z,11.15
2023-03-28T03:35:42.776Z,12.02
2023-03-28T03:38:48.401Z,12.10
2023-03-28T03:41:58.284Z,12.65
2023-03-28T03:45:02.652Z,12.15
2023-03-28T03:48:08.268Z,15.80
2023-03-28T03:51:12.696Z,22.63
2023-03-28T03:54:17.039Z,12.33
2023-03-28T03:57:21.661Z,14.32
2023-03-28T04:00:32.815Z,12.15
2023-03-28T04:03:37.472Z,13.52
2023-03-28T04:06:43.972Z,13.07
2023-03-28T04:09:49.260Z,13.98
2023-03-28T04:12:53.582Z,12.70
2023-03-28T04:15:58.418Z,11.95
2023-03-28T04:19:31.779Z,13.13
2023-03-28T04:22:36.748Z,14.48
2023-03-28T04:26:01.826Z,13.38
2023-03-28T04:29:32.462Z,14.45
2023-03-28T04:32:55.501Z,11.35
2023-03-28T04:36:03.446Z,13.20
2023-03-28T04:39:08.800Z,15.35
2023-03-28T04:42:36.545Z,12.82
2023-03-28T04:46:04.569Z,12.23
2023-03-28T04:49:08.890Z,12.20
2023-03-28T04:52:16.654Z,13.13
2023-03-28T04:55:25.080Z,15.45
2023-03-28T04:58:29.968Z,13.15
2023-03-28T05:01:35.615Z,16.03
2023-03-28T05:05:08.636Z,17.80
2023-03-28T05:08:14.423Z,16.00
2023-03-28T05:11:19.642Z,12.05
2023-03-28T05:14:24.065Z,12.30
2023-03-28T05:17:41.779Z,12.35
2023-03-28T05:21:07.009Z,12.48
2023-03-28T05:24:11.753Z,12.70
2023-03-28T05:27:16.515Z,13.10
2023-03-28T05:30:21.815Z,13.07
2023-03-28T05:33:31.080Z,12.25
2023-03-28T05:36:36.380Z,11.30
2023-03-28T05:39:40.780Z,11.48
2023-03-28T05:42:45.569Z,11.48
2023-03-28T05:45:55.765Z,12.27
2023-03-28T05:49:06.331Z,13.07
2023-03-28T05:52:10.535Z,11.82
2023-03-28T05:55:16.691Z,15.27
2023-03-28T05:58:21.917Z,10.75
2023-03-28T06:01:29.870Z,10.82
2023-03-28T06:04:41.112Z,17.23
2023-03-28T06:07:49.839Z,11.23
2023-03-28T06:11:03.661Z,11.75
2023-03-28T06:14:22.843Z,12.07
2023-03-28T06:17:30.277Z,10.55
2023-03-28T06:20:39.971Z,11.30
2023-03-28T06:23:45.051Z,10.82
2023-03-28T06:27:05.912Z,16.90
2023-03-28T06:30:18.437Z,10.82
2023-03-28T06:33:27.457Z,11.65
2023-03-28T06:36:36.251Z,11.05
2023-03-28T06:39:43.126Z,11.40
2023-03-28T06:42:48.917Z,10.50
2023-03-28T06:46:07.975Z,11.38
2023-03-28T06:49:15.996Z,20.42
2023-03-28T06:52:38.468Z,10.65
2023-03-28T06:55:48.349Z,9.80
2023-03-28T06:58:55.719Z,10.00
2023-03-28T07:02:03.610Z,10.82
2023-03-28T07:05:10.220Z,9.98
2023-03-28T07:08:15.267Z,9.85
2023-03-28T07:11:19.406Z,9.70
2023-03-28T07:14:27.244Z,10.43
2023-03-28T07:17:31.646Z,11.52
2023-03-28T07:20:38.751Z,10.75
2023-03-28T07:23:43.140Z,8.93
2023-03-28T07:26:49.291Z,10.27
2023-03-28T07:29:53.148Z,9.60
2023-03-28T07:33:09.359Z,10.35
2023-03-28T07:36:22.946Z,10.88
2023-03-28T07:39:31.684Z,9.38
2023-03-28T07:42:41.631Z,9.18
2023-03-28T07:48:52.928Z,9.88
2023-03-28T07:51:57.353Z,11.02
2023-03-28T07:55:01.882Z,8.48
2023-03-28T07:58:11.732Z,8.82
2023-03-28T08:01:19.454Z,8.13
2023-03-28T08:04:27.989Z,11.88
2023-03-28T08:07:42.836Z,8.30
2023-03-28T08:10:52.922Z,7.45
2023-03-28T08:13:57.365Z,8.13
2023-03-28T08:17:01.912Z,12.45
2023-03-28T08:20:11.882Z,12.32
2023-03-28T08:23:42.077Z,12.07
2023-03-28T08:27:07.031Z,8.88
2023-03-28T08:30:12.037Z,11.05
2023-03-28T08:33:25.426Z,16.38
2023-03-28T08:36:30.040Z,14.48
2023-03-28T08:39:35.469Z,14.18
2023-03-28T08:43:00.307Z,13.33
2023-03-28T08:46:05.182Z,7.55
2023-03-28T08:49:16.127Z,28.43
2023-03-28T08:52:21.711Z,19.70
2023-03-28T08:55:42.100Z,15.15
2023-03-28T08:59:29.438Z,15.55
2023-03-28T09:02:34.048Z,102.20
2023-03-28T09:05:57.257Z,16.02
2023-03-28T09:09:15.362Z,53.45
2023-03-28T09:12:27.596Z,61.15
2023-03-28T09:15:39.991Z,49.20
2023-03-28T09:19:16.879Z,45.50
2023-03-28T09:22:57.426Z,31.63
2023-03-28T09:26:20.957Z,36.30
2023-03-28T09:29:29.643Z,28.42
2023-03-28T09:32:40.843Z,34.63
2023-03-28T09:35:48.235Z,29.38
2023-03-28T09:38:58.165Z,20.73
2023-03-28T09:42:24.413Z,21.92
2023-03-28T09:45:59.174Z,22.33
2023-03-28T09:49:06.578Z,21.15
2023-03-28T09:52:18.725Z,23.20
2023-03-28T09:55:27.354Z,20.05
2023-03-28T09:58:47.945Z,24.05
2023-03-28T10:02:33.215Z,23.58
2023-03-28T10:05:44.191Z,27.35
2023-03-28T10:09:30.197Z,26.80
2023-03-28T10:12:40.599Z,21.58
2023-03-28T10:15:55.036Z,28.20
2023-03-28T10:19:36.722Z,42.45
2023-03-28T10:22:55.605Z,46.25
2023-03-28T10:26:04.945Z,42.65
2023-03-28T10:29:11.931Z,38.90
2023-03-28T10:32:29.283Z,71.78
2023-03-28T10:36:26.603Z,58.72
2023-03-28T10:39:36.306Z,82.82
2023-03-28T10:43:19.044Z,110.75
2023-03-28T10:47:28.697Z,94.07
2023-03-28T10:50:42.874Z,77.50
2023-03-28T10:53:57.797Z,75.22
2023-03-28T10:57:22.170Z,55.00
2023-03-28T11:00:43.981Z,60.72
2023-03-28T11:04:04.636Z,60.10
2023-03-28T11:07:34.981Z,57.20
2023-03-28T11:11:37.509Z,52.53
2023-03-28T11:15:03.498Z,45.63
2023-03-28T11:18:32.930Z,54.22
2023-03-28T11:25:14.495Z,40.08
2023-03-28T11:29:06.936Z,46.83
2023-03-28T11:32:28.461Z,58.47
2023-03-28T11:36:08.479Z,54.03
2023-03-28T11:39:28.291Z,67.45
2023-03-28T11:42:42.187Z,54.13
2023-03-28T11:45:58.393Z,53.03
2023-03-28T11:49:20.823Z,55.53
2023-03-28T11:52:36.622Z,57.33
2023-03-28T11:55:52.253Z,60.72
2023-03-28T11:59:38.786Z,77.20
2023-03-28T12:02:54.367Z,82.43
2023-03-28T12:06:23.899Z,73.07
2023-03-28T12:10:01.113Z,73.53
2023-03-28T12:13:13.753Z,59.38
2023-03-28T12:16:42.167Z,57.30
2023-03-28T12:19:54.680Z,66.55
2023-03-28T12:23:10.124Z,51.92
2023-03-28T12:27:26.574Z,48.08
2023-03-28T12:31:08.433Z,53.53
2023-03-28T12:34:30.749Z,45.60
2023-03-28T12:38:35.455Z,50.17
2023-03-28T12:42:09.432Z,51.15
2023-03-28T12:45:48.645Z,56.53
2023-03-28T12:49:05.373Z,63.45
2023-03-28T12:52:19.067Z,55.78
2023-03-28T12:55:27.359Z,58.10
2023-03-28T12:58:38.920Z,70.20
2023-03-28T13:01:49.592Z,68.35
2023-03-28T13:05:00.227Z,65.32
2023-03-28T13:08:47.330Z,81.85
2023-03-28T13:12:04.177Z,104.03
2023-03-28T13:15:14.655Z,88.68
2023-03-28T13:18:20.947Z,89.70
2023-03-28T13:21:52.710Z,85.57
2023-03-28T13:25:28.273Z,115.53
2023-03-28T13:28:37.045Z,99.68
2023-03-28T13:31:44.993Z,129.27
2023-03-28T13:34:58.558Z,168.70
2023-03-28T13:38:37.414Z,146.68
2023-03-28T13:41:48.002Z,149.75
2023-03-28T13:44:55.155Z,116.03
2023-03-28T13:48:12.125Z,122.03
2023-03-28T13:51:27.527Z,71.85
2023-03-28T13:54:33.093Z,38.80
2023-03-28T13:57:38.044Z,30.15
2023-03-28T14:00:42.337Z,28.10
2023-03-28T14:03:49.941Z,22.52
2023-03-28T14:06:56.030Z,19.63
2023-03-28T14:10:00.637Z,22.73
2023-03-28T14:13:19.875Z,25.40
2023-03-28T14:16:24.324Z,11.05
2023-03-28T14:19:40.498Z,35.88
2023-03-28T14:26:14.566Z,17.23
2023-03-28T14:29:20.417Z,25.90
2023-03-28T14:35:36.631Z,15.48
2023-03-28T14:38:41.196Z,23.27
2023-03-28T14:41:45.709Z,11.15
2023-03-28T14:44:54.603Z,18.80
2023-03-28T14:47:59.898Z,14.70
2023-03-28T14:51:06.594Z,24.15
2023-03-28T14:54:16.250Z,21.92
2023-03-28T14:57:20.975Z,21.27
2023-03-28T15:00:38.480Z,23.33
2023-03-28T15:03:47.335Z,22.38
2023-03-28T15:06:57.145Z,18.75
2023-03-28T15:10:07.815Z,17.55
2023-03-28T15:13:32.722Z,18.52
2023-03-28T15:16:44.054Z,15.45
2023-03-28T15:19:53.751Z,12.25
2023-03-28T15:23:01.097Z,13.23
2023-03-28T15:26:23.233Z,10.18
2023-03-28T15:29:29.600Z,43.63
2023-03-28T15:32:35.143Z,9.88
2023-03-28T15:35:41.354Z,9.93
2023-03-28T15:38:49.989Z,9.63
2023-03-28T15:42:00.149Z,17.40
2023-03-28T15:45:12.835Z,16.77
2023-03-28T15:48:20.901Z,11.02
2023-03-28T15:51:25.554Z,11.18
2023-03-28T15:54:32.040Z,10.80
2023-03-28T15:57:37.181Z,12.90
2023-03-28T16:00:44.873Z,11.80
2023-03-28T16:03:50.481Z,17.67
2023-03-28T16:07:12.050Z,27.50
2023-03-28T16:10:25.916Z,13.68
2023-03-28T16:13:49.041Z,15.05
2023-03-28T16:17:19.528Z,31.95
2023-03-28T16:20:34.455Z,18.77
2023-03-28T16:23:41.660Z,8.90
2023-03-28T16:26:46.348Z,10.75
2023-03-28T16:29:51.300Z,10.20
2023-03-28T16:32:55.613Z,7.80
2023-03-28T16:36:00.769Z,9.07
2023-03-28T16:39:07.158Z,8.32
2023-03-28T16:42:11.870Z,9.40
2023-03-28T16:45:16.834Z,8.43
2023-03-28T16:48:21.665Z,8.40
2023-03-28T16:51:26.296Z,8.32
2023-03-28T16:54:30.581Z,8.45
2023-03-28T16:57:35.162Z,7.85
2023-03-28T17:00:39.523Z,7.72
2023-03-28T17:03:44.123Z,8.25
2023-03-28T17:06:48.050Z,8.20
2023-03-28T17:09:53.244Z,9.48
2023-03-28T17:12:57.623Z,10.20
2023-03-28T17:16:02.037Z,9.38
2023-03-28T17:19:06.385Z,8.85
2023-03-28T17:22:10.754Z,8.15
2023-03-28T17:25:16.230Z,8.40
2023-03-28T17:28:20.881Z,9.15
2023-03-28T17:31:25.925Z,8.57
2023-03-28T17:34:33.511Z,9.30
2023-03-28T17:37:39.427Z,9.95
2023-03-28T17:40:52.745Z,9.43
2023-03-28T17:43:58.580Z,9.35
2023-03-28T17:50:08.403Z,10.32
2023-03-28T17:53:12.680Z,9.80
2023-03-28T17:56:17.774Z,10.10
2023-03-28T17:59:23.187Z,11.15
2023-03-28T18:02:27.878Z,10.35
2023-03-28T18:05:52.860Z,10.32
2023-03-28T18:08:57.821Z,10.60
2023-03-28T18:12:02.185Z,11.10
2023-03-28T18:15:07.201Z,10.50
2023-03-28T18:18:13.927Z,11.07
2023-03-28T18:21:18.599Z,11.93
2023-03-28T18:24:23.202Z,11.52
2023-03-28T18:27:27.573Z,10.73
2023-03-28T18:30:32.483Z,10.80
2023-03-28T18:33:37.368Z,11.60
2023-03-28T18:36:42.923Z,11.10
2023-03-28T18:39:47.560Z,11.10
2023-03-28T18:42:52.114Z,12.77
2023-03-28T18:45:57.009Z,13.43
2023-03-28T18:49:02.696Z,12.73
2023-03-28T18:52:06.998Z,12.40
2023-03-28T18:55:12.950Z,13.77
2023-03-28T19:01:21.747Z,12.52
2023-03-28T19:04:27.186Z,13.38
2023-03-28T19:07:31.943Z,13.82
2023-03-28T19:10:36.469Z,13.35
2023-03-28T19:13:42.337Z,13.82
2023-03-28T19:19:50.826Z,13.07
2023-03-28T19:22:55.074Z,13.55
2023-03-28T19:26:01.950Z,14.52
2023-03-28T19:29:06.814Z,14.40
2023-03-28T19:32:11.071Z,14.07
2023-03-28T19:35:23.564Z,13.50
2023-03-28T19:38:28.900Z,14.23
2023-03-28T19:41:33.482Z,19.07
2023-03-28T19:44:38.122Z,17.23
2023-03-28T19:47:42.779Z,16.25
2023-03-28T19:50:50.972Z,23.45
2023-03-28T19:53:57.734Z,22.30
2023-03-28T19:57:02.196Z,15.50
2023-03-28T20:00:08.772Z,14.98
2023-03-28T20:03:19.949Z,15.15
2023-03-28T20:06:24.524Z,13.85
2023-03-28T20:09:28.766Z,15.30
2023-03-28T20:12:33.411Z,14.80
2023-03-28T20:15:42.831Z,13.07
2023-03-28T20:18:47.529Z,12.43
2023-03-28T20:21:51.936Z,13.43
2023-03-28T20:24:57.071Z,14.52
2023-03-28T20:28:03.660Z,17.25
2023-03-28T20:31:10.188Z,20.83
2023-03-28T20:34:14.817Z,14.77
2023-03-28T20:37:20.996Z,14.52
2023-03-28T20:43:31.611Z,14.45
2023-03-28T20:46:39.731Z,18.75
2023-03-28T20:49:47.285Z,21.02
2023-03-28T20:52:52.606Z,15.65
2023-03-28T20:56:06.130Z,18.52
2023-03-28T20:59:10.466Z,20.48
2023-03-28T21:02:15.670Z,17.50
2023-03-28T21:05:20.353Z,15.25
2023-03-28T21:08:28.649Z,15.02
2023-03-28T21:11:35.535Z,12.45
2023-03-28T21:14:40.320Z,13.02
2023-03-28T21:17:44.797Z,14.23
2023-03-28T21:20:49.119Z,13.50
2023-03-28T21:23:54.016Z,13.63
2023-03-28T21:26:58.585Z,13.45
2023-03-28T21:30:07.843Z,13.95
2023-03-28T21:33:16.933Z,14.90
2023-03-28T21:36:22.265Z,15.65
2023-03-28T21:39:26.793Z,15.88
2023-03-28T21:42:31.707Z,17.52
2023-03-28T21:45:36.612Z,31.08
2023-03-28T21:48:42.539Z,21.25
2023-03-28T21:54:51.690Z,22.38
2023-03-28T21:57:55.931Z,15.50
2023-03-28T22:01:02.261Z,20.05
2023-03-28T22:04:06.437Z,12.40
2023-03-28T22:07:11.673Z,13.07
2023-03-28T22:10:16.201Z,13.23
2023-03-28T22:13:22.145Z,13.52
2023-03-28T22:19:31.764Z,12.43
2023-03-28T22:22:36.612Z,12.53
2023-03-28T22:25:41.303Z,14.33
2023-03-28T22:28:46.785Z,12.50
2023-03-28T22:34:55.180Z,13.10
2023-03-28T22:37:59.760Z,12.23
2023-03-28T22:41:04.357Z,12.10
2023-03-28T22:44:08.506Z,12.75
2023-03-28T22:47:12.927Z,13.30
2023-03-28T22:50:19.332Z,11.15
2023-03-28T22:53:30.338Z,11.27
2023-03-28T22:56:34.760Z,12.20
2023-03-28T22:59:38.882Z,11.48
2023-03-28T23:02:43.349Z,11.30
2023-03-28T23:05:47.826Z,12.98
2023-03-28T23:08:52.134Z,12.07
2023-03-28T23:11:56.589Z,11.48
2023-03-28T23:15:00.571Z,12.43
2023-03-28T23:18:06.715Z,11.32
2023-03-28T23:21:11.317Z,11.20
2023-03-28T23:24:15.936Z,12.18
2023-03-28T23:27:21.064Z,11.00
2023-03-28T23:30:25.517Z,11.48
2023-03-28T23:33:30.097Z,11.32
2023-03-28T23:36:34.375Z,13.80
2023-03-28T23:39:39.084Z,11.35
2023-03-28T23:42:45.080Z,9.88
2023-03-28T23:45:49.920Z,10.85
2023-03-28T23:48:54.240Z,11.48
2023-03-28T23:51:58.298Z,11.40
2023-03-28T23:55:03.120Z,10.85
2023-03-28T23:58:07.581Z,10.40
